Time;durP1;ratioP1;P1;durP2;ratioP2;P2;SDS_P1;SDS_P2;PMS_P1;PMS_P2;Temp;Humidity;BMP_temperature;BMP_pressure;BME280_temperature;BME280_humidity;BME280_pressure;Samples;Min_cycle;Max_cycle;Signal;HPM_P1;HPM_P2
2023/02/21 02:14:51;;;;;;;4.07;3.77;;;;;;;0.86;100.00;97293.22;5042535;28;20819;-68
2023/02/21 02:17:26;;;;;;;5.43;4.57;;;;;;;0.84;100.00;97289.09;5019201;28;20589;-67
2023/02/21 02:20:44;;;;;;;5.43;4.87;;;;;;;0.81;100.00;97297.97;5060863;28;20204;-68
2023/02/21 02:23:39;;;;;;;6.67;6.07;;;;;;;0.79;100.00;97299.88;5041318;28;20250;-68
2023/02/21 02:26:42;;;;;;;7.87;5.80;;;;;;;0.77;100.00;97306.97;5060644;28;20216;-67
2023/02/21 02:29:25;;;;;;;5.23;4.77;;;;;;;0.69;100.00;97306.75;5034283;28;20217;-67
2023/02/21 02:32:25;;;;;;;5.40;4.87;;;;;;;0.71;100.00;97313.50;5019847;28;20242;-68
2023/02/21 02:34:56;;;;;;;7.93;5.47;;;;;;;0.61;100.00;97317.75;5065847;28;20214;-69
2023/02/21 02:37:30;;;;;;;5.27;4.43;;;;;;;0.65;100.00;97315.75;5024041;28;20325;-67
2023/02/21 02:40:03;;;;;;;4.60;4.30;;;;;;;0.66;100.00;97314.81;5063136;28;20678;-69
2023/02/21 02:42:40;;;;;;;6.53;4.73;;;;;;;0.65;100.00;97313.16;5063117;28;20248;-69
2023/02/21 02:45:12;;;;;;;5.90;4.90;;;;;;;0.61;100.00;97306.53;5066040;28;20208;-69
2023/02/21 02:47:43;;;;;;;4.97;4.43;;;;;;;0.53;100.00;97307.09;5003278;28;20510;-68
2023/02/21 02:50:13;;;;;;;4.50;3.80;;;;;;;0.42;100.00;97307.91;5065090;28;20536;-67
2023/02/21 02:52:50;;;;;;;5.07;4.67;;;;;;;0.36;100.00;97316.22;5033111;28;20535;-69
2023/02/21 02:55:26;;;;;;;6.63;4.80;;;;;;;0.30;100.00;97314.88;5066123;28;20194;-67
2023/02/21 02:57:54;;;;;;;5.07;4.57;;;;;;;0.34;100.00;97320.72;5060278;28;20209;-69
2023/02/21 03:00:22;;;;;;;7.13;4.40;;;;;;;0.33;100.00;97312.03;5049374;28;20205;-67
2023/02/21 03:03:00;;;;;;;5.77;4.40;;;;;;;0.35;100.00;97311.94;5016879;28;20317;-67
2023/02/21 03:05:42;;;;;;;4.90;4.50;;;;;;;0.23;100.00;97313.69;5045454;28;20779;-68
2023/02/21 03:08:16;;;;;;;5.43;4.37;;;;;;;0.27;100.00;97317.72;5059939;28;20293;-67
2023/02/21 03:10:48;;;;;;;8.23;4.20;;;;;;;0.19;100.00;97301.84;5025583;28;20236;-69
2023/02/21 03:13:18;;;;;;;4.73;4.33;;;;;;;0.24;100.00;97302.31;5063239;28;20303;-70
2023/02/21 03:15:49;;;;;;;4.60;4.20;;;;;;;0.26;100.00;97311.69;5061501;28;20305;-67
2023/02/21 03:18:21;;;;;;;4.50;4.20;;;;;;;0.23;100.00;97318.91;5001889;28;21002;-70
2023/02/21 03:20:54;;;;;;;4.67;4.00;;;;;;;0.34;100.00;97318.09;5060640;28;20206;-67
2023/02/21 03:23:22;;;;;;;5.87;4.63;;;;;;;0.28;100.00;97319.38;5030193;28;20331;-69
2023/02/21 03:25:51;;;;;;;4.57;4.20;;;;;;;0.21;100.00;97315.59;5043949;28;20730;-67
2023/02/21 03:28:20;;;;;;;4.07;3.73;;;;;;;0.21;100.00;97312.97;5063743;28;20198;-69
2023/02/21 03:30:49;;;;;;;4.93;4.30;;;;;;;0.21;100.00;97318.19;5041449;28;20554;-67
2023/02/21 03:33:17;;;;;;;5.70;4.00;;;;;;;0.25;100.00;97324.84;5046760;28;21080;-69
2023/02/21 03:35:44;;;;;;;5.03;3.80;;;;;;;0.21;100.00;97321.66;4994559;28;20214;-67
2023/02/21 03:38:15;;;;;;;5.43;4.00;;;;;;;0.17;100.00;97328.00;5037764;28;20697;-69
2023/02/21 03:40:42;;;;;;;4.37;4.07;;;;;;;0.12;100.00;97319.72;5043872;28;20482;-68
2023/02/21 03:43:10;;;;;;;5.50;3.90;;;;;;;0.12;100.00;97312.72;5060554;28;20226;-69
2023/02/21 03:45:38;;;;;;;4.77;4.00;;;;;;;0.20;100.00;97326.97;5034877;28;20824;-68
2023/02/21 03:48:06;;;;;;;5.17;4.23;;;;;;;0.14;100.00;97325.63;5041749;28;20213;-68
2023/02/21 03:50:33;;;;;;;3.83;3.53;;;;;;;0.22;100.00;97330.28;5016647;28;20844;-67
2023/02/21 03:53:01;;;;;;;4.67;4.27;;;;;;;0.24;100.00;97334.44;5040996;28;21039;-67
2023/02/21 03:55:30;;;;;;;4.50;3.90;;;;;;;0.19;100.00;97330.50;5039641;28;20206;-67
2023/02/21 03:57:58;;;;;;;4.03;3.73;;;;;;;0.16;100.00;97334.16;5063506;28;20205;-69
2023/02/21 04:00:25;;;;;;;5.33;3.80;;;;;;;0.13;100.00;97330.03;5058867;28;20302;-68
2023/02/21 04:02:53;;;;;;;5.17;4.63;;;;;;;0.11;100.00;97336.28;5039028;28;20673;-68
2023/02/21 04:05:21;;;;;;;4.00;3.53;;;;;;;0.02;100.00;97327.41;5029184;28;20771;-68
2023/02/21 04:07:49;;;;;;;4.37;3.90;;;;;;;0.11;100.00;97337.13;5039893;28;20210;-69
2023/02/21 04:10:17;;;;;;;4.37;3.97;;;;;;;0.03;100.00;97331.66;5060999;28;20343;-67
2023/02/21 04:12:46;;;;;;;5.27;3.70;;;;;;;0.09;100.00;97336.41;5036661;28;20750;-68
2023/02/21 04:15:14;;;;;;;4.63;3.70;;;;;;;0.04;100.00;97330.72;5061895;28;20216;-68
2023/02/21 04:17:42;;;;;;;4.03;3.73;;;;;;;0.06;100.00;97328.81;5063381;28;20420;-69
2023/02/21 04:20:10;;;;;;;5.73;3.90;;;;;;;0.11;100.00;97326.72;5045389;28;20238;-67
2023/02/21 04:22:39;;;;;;;4.60;4.20;;;;;;;0.23;100.00;97338.00;4999348;28;20240;-68
2023/02/21 04:25:07;;;;;;;4.57;4.03;;;;;;;0.29;100.00;97334.06;5065289;28;20213;-68
2023/02/21 04:27:35;;;;;;;4.50;4.20;;;;;;;0.30;100.00;97332.31;5062750;28;20763;-69
2023/02/21 04:30:04;;;;;;;6.83;4.30;;;;;;;0.49;100.00;97334.34;5060547;28;20544;-69
2023/02/21 04:32:32;;;;;;;4.27;3.87;;;;;;;0.69;100.00;97332.84;5061663;28;20398;-69
2023/02/21 04:34:59;;;;;;;5.60;4.47;;;;;;;0.84;100.00;97323.81;5039913;28;20222;-68
2023/02/21 04:37:27;;;;;;;5.13;4.47;;;;;;;0.96;100.00;97326.44;4994940;28;20302;-68
2023/02/21 04:39:55;;;;;;;6.80;4.90;;;;;;;1.13;100.00;97314.66;5061643;28;20696;-69
2023/02/21 04:42:23;;;;;;;4.90;4.50;;;;;;;1.13;100.00;97309.44;5047590;28;20206;-68
2023/02/21 04:44:50;;;;;;;5.27;4.83;;;;;;;1.27;100.00;97314.41;5064219;28;20226;-68
2023/02/21 04:47:28;;;;;;;5.17;4.20;;;;;;;1.34;100.00;97313.91;5061726;28;20780;-68
2023/02/21 04:49:56;;;;;;;5.27;4.83;;;;;;;1.39;100.00;97316.97;5063307;28;20227;-69
2023/02/21 04:52:24;;;;;;;6.63;4.47;;;;;;;1.33;100.00;97297.44;4998040;28;20238;-67
2023/02/21 04:54:52;;;;;;;4.50;4.10;;;;;;;1.46;100.00;97309.50;5045795;28;20260;-69
2023/02/21 04:57:20;;;;;;;4.53;4.13;;;;;;;1.49;100.00;97301.41;5045853;28;20550;-68
2023/02/21 04:59:48;;;;;;;5.07;4.27;;;;;;;1.51;100.00;97310.75;5063535;28;20230;-68
2023/02/21 05:02:15;;;;;;;4.57;4.23;;;;;;;1.35;100.00;97302.50;5064454;28;20722;-68
2023/02/21 05:04:44;;;;;;;4.30;3.90;;;;;;;1.37;100.00;97303.22;5064880;28;20613;-70
2023/02/21 05:07:12;;;;;;;4.87;4.20;;;;;;;1.40;100.00;97301.19;5020457;28;20219;-68
2023/02/21 05:09:40;;;;;;;5.43;4.70;;;;;;;1.38;100.00;97300.50;5021132;28;20367;-68
2023/02/21 05:12:10;;;;;;;6.60;5.53;;;;;;;1.37;100.00;97298.00;5059750;28;20206;-68
2023/02/21 05:14:38;;;;;;;5.27;4.83;;;;;;;1.29;100.00;97291.59;5057033;28;20226;-68
2023/02/21 05:17:07;;;;;;;5.13;3.73;;;;;;;1.27;100.00;97290.91;5060148;28;20209;-69
2023/02/21 05:19:35;;;;;;;4.20;3.90;;;;;;;1.30;100.00;97288.03;5062847;28;20860;-69
2023/02/21 05:22:05;;;;;;;4.10;3.80;;;;;;;1.25;100.00;97289.34;5043704;28;20206;-70
2023/02/21 05:24:33;;;;;;;7.03;4.37;;;;;;;1.24;100.00;97291.16;5004660;28;22935;-70
2023/02/21 05:27:01;;;;;;;4.70;4.27;;;;;;;1.34;100.00;97287.78;5064976;28;20494;-69
2023/02/21 05:29:29;;;;;;;4.20;3.90;;;;;;;1.37;100.00;97298.84;5057702;28;20210;-69
2023/02/21 05:31:57;;;;;;;4.80;4.13;;;;;;;1.29;100.00;97296.00;5060010;28;20244;-70
2023/02/21 05:34:24;;;;;;;4.20;3.90;;;;;;;1.22;100.00;97279.16;5059560;28;20856;-69
2023/02/21 05:36:52;;;;;;;4.77;3.87;;;;;;;1.35;100.00;97299.91;5044730;28;20218;-70
2023/02/21 05:39:21;;;;;;;5.27;4.80;;;;;;;1.42;100.00;97296.69;5020423;28;20498;-68
2023/02/21 05:41:50;;;;;;;6.57;5.80;;;;;;;1.50;100.00;97296.03;5049646;28;20707;-68
2023/02/21 05:44:18;;;;;;;5.60;5.10;;;;;;;1.59;100.00;97297.94;5064549;28;20727;-68
2023/02/21 05:46:47;;;;;;;5.80;5.23;;;;;;;1.65;100.00;97288.75;5066906;28;20198;-69
2023/02/21 05:49:15;;;;;;;6.23;4.70;;;;;;;1.74;100.00;97297.63;5062414;28;20235;-69
2023/02/21 05:51:43;;;;;;;5.30;4.87;;;;;;;1.81;100.00;97300.56;5061576;28;20229;-69
2023/02/21 05:54:15;;;;;;;6.30;4.47;;;;;;;1.75;100.00;97303.69;5001251;28;20222;-69
2023/02/21 05:56:45;;;;;;;6.33;4.87;;;;;;;1.69;100.00;97303.22;5046063;28;20461;-69
2023/02/21 05:59:13;;;;;;;4.97;4.33;;;;;;;1.73;100.00;97298.59;5067379;28;20491;-69
2023/02/21 06:01:41;;;;;;;5.53;4.70;;;;;;;1.71;100.00;97316.16;5066830;28;20285;-69
2023/02/21 06:04:09;;;;;;;6.80;5.37;;;;;;;1.71;100.00;97310.94;5062748;28;20221;-69
2023/02/21 06:06:37;;;;;;;5.33;4.53;;;;;;;1.68;100.00;97301.56;5060208;28;21219;-69
2023/02/21 06:09:05;;;;;;;5.57;5.03;;;;;;;1.68;100.00;97296.34;5041838;28;20302;-68
2023/02/21 06:11:36;;;;;;;4.97;4.20;;;;;;;1.63;100.00;97298.50;5024176;28;20759;-70
2023/02/21 06:14:07;;;;;;;6.33;4.57;;;;;;;1.67;100.00;97293.84;5066268;28;20323;-70
2023/02/21 06:16:37;;;;;;;6.73;4.50;;;;;;;1.71;100.00;97284.81;5068284;28;20354;-71
2023/02/21 06:19:07;;;;;;;5.77;5.20;;;;;;;1.81;100.00;97287.50;5061419;28;20727;-71
2023/02/21 06:21:35;;;;;;;5.50;4.70;;;;;;;1.96;100.00;97301.91;5061824;28;20324;-70
2023/02/21 06:24:03;;;;;;;5.13;4.67;;;;;;;1.97;100.00;97298.34;5042829;28;20226;-69
2023/02/21 06:26:31;;;;;;;5.07;4.60;;;;;;;2.00;100.00;97295.47;5019463;28;20297;-71
2023/02/21 06:28:59;;;;;;;4.90;4.53;;;;;;;1.94;100.00;97298.59;5065957;28;20593;-70
2023/02/21 06:31:28;;;;;;;5.90;4.77;;;;;;;1.88;100.00;97296.50;5061457;28;20769;-69
2023/02/21 06:33:56;;;;;;;7.87;6.60;;;;;;;1.96;100.00;97303.72;5041810;28;20238;-71
2023/02/21 06:36:26;;;;;;;7.00;5.30;;;;;;;1.92;100.00;97297.91;5059857;28;20209;-68
2023/02/21 06:38:55;;;;;;;5.00;4.60;;;;;;;1.93;100.00;97303.97;5045770;28;20221;-70
2023/02/21 06:41:24;;;;;;;6.73;4.80;;;;;;;1.95;100.00;97295.03;4993915;28;20783;-69
2023/02/21 06:43:52;;;;;;;6.30;5.07;;;;;;;2.02;100.00;97304.00;5043696;28;20877;-69
2023/02/21 06:46:22;;;;;;;5.73;5.23;;;;;;;2.02;100.00;97306.63;5068311;28;20308;-68
2023/02/21 06:48:51;;;;;;;7.43;5.23;;;;;;;2.14;100.00;97306.59;5047387;28;20317;-69
2023/02/21 06:51:19;;;;;;;5.50;5.10;;;;;;;2.23;100.00;97303.19;5064069;28;20223;-69
2023/02/21 06:53:50;;;;;;;7.10;5.30;;;;;;;2.26;100.00;97286.41;5062165;28;20226;-70
2023/02/21 06:56:18;;;;;;;6.20;5.03;;;;;;;2.44;100.00;97310.19;5010575;28;20809;-69
2023/02/21 06:58:45;;;;;;;7.10;4.60;;;;;;;2.38;100.00;97308.09;5057520;28;20207;-71
2023/02/21 07:01:13;;;;;;;5.63;5.13;;;;;;;2.41;100.00;97306.06;5060052;28;20199;-69
2023/02/21 07:03:43;;;;;;;9.50;5.03;;;;;;;2.49;100.00;97318.50;5050077;28;21365;-71
2023/02/21 07:06:12;;;;;;;6.30;4.93;;;;;;;2.61;100.00;97313.97;5063368;28;20205;-69
2023/02/21 07:08:39;;;;;;;6.13;5.53;;;;;;;2.59;100.00;97315.91;5066204;28;20235;-71
2023/02/21 07:11:08;;;;;;;5.67;5.07;;;;;;;2.65;100.00;97302.31;5038184;28;20657;-70
2023/02/21 07:13:36;;;;;;;5.90;5.03;;;;;;;2.86;100.00;97319.75;5035317;28;20527;-68
2023/02/21 07:16:04;;;;;;;5.43;5.03;;;;;;;2.89;100.00;97319.47;5063726;28;20205;-69
2023/02/21 07:18:32;;;;;;;5.23;4.73;;;;;;;3.00;100.00;97322.00;5061149;28;20195;-68
2023/02/21 07:21:00;;;;;;;5.70;4.83;;;;;;;3.06;100.00;97318.03;5048266;28;20198;-69
2023/02/21 07:23:29;;;;;;;6.10;5.40;;;;;;;3.10;100.00;97327.28;5060012;28;20226;-68
2023/02/21 07:25:56;;;;;;;7.80;5.07;;;;;;;3.21;100.00;97326.34;5060437;28;20199;-68
2023/02/21 07:28:24;;;;;;;9.47;6.63;;;;;;;3.42;100.00;97322.81;4996033;28;20211;-67
2023/02/21 07:30:51;;;;;;;5.80;5.20;;;;;;;3.32;100.00;97312.31;5062667;28;20206;-68
2023/02/21 07:33:19;;;;;;;6.03;5.40;;;;;;;3.37;100.00;97325.81;5057853;28;20539;-67
2023/02/21 07:35:46;;;;;;;5.93;5.47;;;;;;;3.52;100.00;97325.44;5052188;28;20202;-69
2023/02/21 07:38:20;;;;;;;5.67;5.17;;;;;;;3.50;100.00;97317.72;5064005;28;20206;-68
2023/02/21 07:40:49;;;;;;;5.63;5.23;;;;;;;3.65;100.00;97325.16;5062758;28;20200;-68
2023/02/21 07:43:17;;;;;;;6.33;5.73;;;;;;;3.51;100.00;97327.25;5012357;28;20226;-69
2023/02/21 07:45:45;;;;;;;6.67;6.03;;;;;;;3.38;100.00;97327.47;5057760;28;20214;-70
2023/02/21 07:48:13;;;;;;;7.20;5.10;;;;;;;3.29;100.00;97336.16;5057284;28;20234;-68
2023/02/21 07:50:41;;;;;;;5.37;4.53;;;;;;;3.29;100.00;97325.69;5051009;28;20201;-70
2023/02/21 07:53:09;;;;;;;6.67;5.27;;;;;;;3.33;100.00;97329.69;5060264;28;20222;-68
2023/02/21 07:55:37;;;;;;;7.30;5.30;;;;;;;3.46;100.00;97329.44;5055575;28;20566;-69
2023/02/21 07:58:07;;;;;;;5.63;5.13;;;;;;;3.47;100.00;97334.53;5039110;28;20203;-68
2023/02/21 08:00:35;;;;;;;5.53;5.03;;;;;;;3.57;100.00;97333.69;5031760;28;20590;-68
2023/02/21 08:03:06;;;;;;;5.60;5.07;;;;;;;3.72;100.00;97334.13;5058635;28;20519;-68
2023/02/21 08:05:34;;;;;;;5.87;5.37;;;;;;;3.70;100.00;97333.44;5043628;28;20328;-69
2023/02/21 08:08:01;;;;;;;6.50;5.60;;;;;;;3.81;100.00;97337.75;5062899;28;20207;-68
2023/02/21 08:10:29;;;;;;;8.60;5.27;;;;;;;3.80;100.00;97336.94;5058968;28;20407;-69
2023/02/21 08:12:57;;;;;;;8.77;5.40;;;;;;;3.86;100.00;97335.53;5045440;28;20264;-68
2023/02/21 08:15:25;;;;;;;6.33;5.30;;;;;;;3.93;100.00;97331.38;5018926;28;20209;-68
2023/02/21 08:17:53;;;;;;;8.50;6.37;;;;;;;4.10;100.00;97336.91;5067336;28;20206;-69
2023/02/21 08:20:21;;;;;;;10.13;6.00;;;;;;;4.23;100.00;97341.88;5051877;28;20198;-68
2023/02/21 08:22:49;;;;;;;6.10;5.50;;;;;;;4.45;100.00;97340.72;5060996;28;20240;-69
2023/02/21 08:25:17;;;;;;;5.97;5.47;;;;;;;4.43;100.00;97338.25;5061013;28;20721;-68
2023/02/21 08:27:45;;;;;;;7.30;6.43;;;;;;;4.59;100.00;97348.16;5058547;28;20222;-69
2023/02/21 08:30:15;;;;;;;6.13;5.63;;;;;;;4.72;100.00;97334.72;5021294;28;20276;-68
2023/02/21 08:32:47;;;;;;;6.07;5.57;;;;;;;4.75;100.00;97331.00;5052154;28;20388;-70
2023/02/21 08:35:15;;;;;;;5.50;5.10;;;;;;;4.83;100.00;97335.50;5062550;28;20218;-68
2023/02/21 08:37:45;;;;;;;5.43;4.93;;;;;;;4.92;100.00;97338.09;5045948;28;20961;-70
2023/02/21 08:40:13;;;;;;;5.47;5.00;;;;;;;5.02;100.00;97324.94;5059989;28;20745;-68
2023/02/21 08:42:41;;;;;;;9.23;5.73;;;;;;;5.19;100.00;97317.25;5066598;28;20625;-70
2023/02/21 08:45:15;;;;;;;5.83;5.43;;;;;;;5.34;100.00;97318.41;5033925;28;20732;-69
2023/02/21 08:47:44;;;;;;;5.60;5.10;;;;;;;5.96;100.00;97324.75;5046008;28;20210;-70
2023/02/21 08:50:12;;;;;;;6.13;5.53;;;;;;;6.27;100.00;97316.50;5061172;28;20221;-68
2023/02/21 08:52:40;;;;;;;5.47;4.80;;;;;;;6.32;100.00;97314.22;5047562;28;21126;-70
2023/02/21 08:55:08;;;;;;;5.77;5.17;;;;;;;6.77;100.00;97301.81;5061146;28;20206;-69
2023/02/21 08:57:35;;;;;;;8.23;5.53;;;;;;;6.53;100.00;97318.28;5061440;28;20420;-70
2023/02/21 09:00:05;;;;;;;7.70;5.43;;;;;;;6.35;100.00;97311.28;5043840;28;20202;-69
2023/02/21 09:02:33;;;;;;;6.20;5.33;;;;;;;6.21;100.00;97322.34;5028946;28;20285;-70
2023/02/21 09:05:02;;;;;;;6.47;5.67;;;;;;;6.24;100.00;97314.13;5067267;28;20206;-70
2023/02/21 09:07:32;;;;;;;5.70;5.20;;;;;;;6.25;100.00;97328.97;5040432;28;20669;-70
2023/02/21 09:10:00;;;;;;;8.03;5.40;;;;;;;6.23;100.00;97326.50;5067065;28;20625;-68
2023/02/21 09:12:28;;;;;;;8.77;6.53;;;;;;;6.51;100.00;97326.38;5066824;28;20426;-70
2023/02/21 09:14:55;;;;;;;5.70;5.20;;;;;;;6.47;100.00;97324.19;5069322;28;20457;-70
2023/02/21 09:17:23;;;;;;;6.23;5.60;;;;;;;6.56;100.00;97319.81;4998374;28;20252;-68
2023/02/21 09:19:51;;;;;;;5.73;5.23;;;;;;;6.84;100.00;97322.28;5066053;28;20201;-70
2023/02/21 09:22:22;;;;;;;5.80;5.20;;;;;;;7.07;100.00;97328.63;5063070;28;20447;-68
2023/02/21 09:24:50;;;;;;;10.30;5.60;;;;;;;7.07;100.00;97333.09;5053651;28;20681;-70
2023/02/21 09:27:18;;;;;;;6.40;5.10;;;;;;;7.09;100.00;97333.75;5061719;28;20320;-69
2023/02/21 09:29:46;;;;;;;5.53;5.13;;;;;;;7.31;100.00;97328.88;5067951;28;20581;-71
2023/02/21 09:32:14;;;;;;;5.97;4.93;;;;;;;7.48;99.77;97319.22;5023989;28;20205;-68
2023/02/21 09:34:42;;;;;;;5.77;5.17;;;;;;;7.53;97.72;97320.38;5054840;28;20764;-70
2023/02/21 09:37:10;;;;;;;8.37;5.60;;;;;;;7.71;99.53;97322.06;5065530;28;20516;-68
2023/02/21 09:39:39;;;;;;;5.80;5.27;;;;;;;7.99;97.02;97320.97;5049573;28;20695;-70
2023/02/21 09:42:06;;;;;;;8.73;7.83;;;;;;;8.09;94.97;97311.88;5066578;28;20484;-68
2023/02/21 09:44:34;;;;;;;8.83;6.77;;;;;;;8.28;94.83;97319.63;5065954;28;20233;-70
2023/02/21 09:47:04;;;;;;;7.33;5.67;;;;;;;8.45;94.16;97313.34;5068462;28;20202;-69
2023/02/21 09:49:34;;;;;;;7.17;5.30;;;;;;;9.00;91.95;97313.56;5029087;28;20537;-68
2023/02/21 09:52:01;;;;;;;5.10;4.60;;;;;;;8.88;91.31;97317.56;5065705;28;20198;-68
2023/02/21 09:54:32;;;;;;;5.67;5.23;;;;;;;8.89;91.28;97313.94;5047944;28;20278;-69
2023/02/21 09:57:03;;;;;;;6.33;4.67;;;;;;;8.87;91.29;97311.44;5069562;28;20216;-68
2023/02/21 09:59:31;;;;;;;5.60;5.13;;;;;;;9.04;90.52;97316.69;5061432;28;20221;-70
2023/02/21 10:02:12;;;;;;;5.07;4.57;;;;;;;8.74;90.94;97314.66;5066452;28;20609;-70
2023/02/21 10:04:54;;;;;;;5.63;4.70;;;;;;;8.74;90.97;97309.38;5044801;28;20403;-69
2023/02/21 10:07:27;;;;;;;5.17;4.67;;;;;;;8.92;90.94;97310.94;5060602;28;20202;-68
2023/02/21 10:09:56;;;;;;;5.33;4.90;;;;;;;9.00;91.32;97307.47;5050889;28;20198;-70
2023/02/21 10:12:28;;;;;;;7.33;6.63;;;;;;;9.09;89.51;97309.06;5060514;28;20194;-68
2023/02/21 10:15:14;;;;;;;5.57;5.07;;;;;;;8.77;90.55;97314.31;5066222;28;20201;-70
2023/02/21 10:17:46;;;;;;;7.17;4.87;;;;;;;8.93;91.66;97316.09;5061338;28;20236;-68
2023/02/21 10:20:15;;;;;;;6.30;4.73;;;;;;;9.08;88.67;97304.78;5019061;28;20206;-68
2023/02/21 10:22:46;;;;;;;4.53;4.13;;;;;;;9.05;90.15;97311.22;5063624;28;20291;-70
2023/02/21 10:25:21;;;;;;;4.63;4.10;;;;;;;9.16;89.42;97310.03;5060267;28;20194;-68
2023/02/21 10:27:53;;;;;;;4.03;3.63;;;;;;;9.30;89.55;97310.31;5065345;28;20213;-69
2023/02/21 10:30:27;;;;;;;4.50;3.70;;;;;;;9.31;88.47;97320.72;5056015;28;20285;-69
2023/02/21 10:32:56;;;;;;;3.40;3.10;;;;;;;9.43;88.43;97317.69;5069729;28;20691;-69
2023/02/21 10:35:23;;;;;;;4.10;3.63;;;;;;;9.32;87.98;97310.97;5019501;28;20217;-68
2023/02/21 10:37:52;;;;;;;4.20;3.90;;;;;;;9.41;87.84;97307.28;5067527;28;20202;-69
2023/02/21 10:40:29;;;;;;;4.00;3.20;;;;;;;9.58;86.75;97310.66;5063476;28;20308;-69
2023/02/21 10:43:02;;;;;;;4.00;3.70;;;;;;;9.63;86.93;97304.81;5052346;28;20228;-70
2023/02/21 10:45:35;;;;;;;4.03;3.73;;;;;;;9.80;87.15;97306.38;5060792;28;20341;-70
2023/02/21 10:48:05;;;;;;;3.57;3.37;;;;;;;9.93;85.82;97304.97;5064376;28;20311;-68
2023/02/21 10:50:38;;;;;;;6.17;3.20;;;;;;;9.90;85.07;97303.50;5020885;28;20206;-69
2023/02/21 10:53:07;;;;;;;4.23;3.67;;;;;;;9.94;84.98;97293.38;5063380;28;20233;-69
2023/02/21 10:55:35;;;;;;;3.40;3.20;;;;;;;10.01;84.24;97301.44;5066888;28;20206;-69
2023/02/21 10:58:09;;;;;;;4.20;3.73;;;;;;;10.02;84.83;97292.50;5046922;28;20194;-69
2023/02/21 11:00:38;;;;;;;3.30;3.10;;;;;;;10.02;85.41;97300.44;5061660;28;20335;-69
2023/02/21 11:03:07;;;;;;;3.93;3.63;;;;;;;10.09;84.63;97291.63;5062222;28;20206;-68
2023/02/21 11:05:35;;;;;;;5.07;4.00;;;;;;;10.16;84.82;97285.59;5014228;28;21910;-69
2023/02/21 11:08:06;;;;;;;3.50;3.17;;;;;;;10.13;84.42;97282.31;5068435;28;20293;-68
2023/02/21 11:10:36;;;;;;;5.13;3.83;;;;;;;10.21;83.90;97288.53;5061724;28;20670;-68
2023/02/21 11:13:14;;;;;;;3.40;2.90;;;;;;;10.50;83.44;97290.44;5064948;28;20313;-68
2023/02/21 11:15:41;;;;;;;3.47;3.10;;;;;;;10.69;82.25;97280.34;5063918;28;20494;-68
2023/02/21 11:18:17;;;;;;;3.80;3.50;;;;;;;10.46;82.07;97277.75;5063345;28;20275;-67
2023/02/21 11:20:46;;;;;;;3.07;2.83;;;;;;;10.82;82.99;97267.25;5065520;28;20214;-69
2023/02/21 11:23:25;;;;;;;3.63;3.33;;;;;;;11.30;81.87;97268.66;5017990;28;20271;-68
2023/02/21 11:26:00;;;;;;;3.40;3.20;;;;;;;11.25;81.03;97263.09;5066990;28;20708;-69
2023/02/21 11:28:29;;;;;;;3.40;3.10;;;;;;;11.26;79.03;97262.91;5059770;28;20194;-70
2023/02/21 11:31:15;;;;;;;4.83;3.50;;;;;;;11.09;79.37;97242.91;5062592;28;20598;-69
2023/02/21 11:33:57;;;;;;;4.10;3.80;;;;;;;11.05;78.24;97242.47;5063607;28;20314;-69
2023/02/21 11:36:28;;;;;;;4.27;3.50;;;;;;;10.97;79.60;97239.91;5060434;28;20202;-68
2023/02/21 11:39:01;;;;;;;4.00;3.60;;;;;;;11.07;79.33;97235.16;5022637;28;20301;-71
2023/02/21 11:41:30;;;;;;;5.37;3.70;;;;;;;11.36;78.13;97243.22;5065114;28;20406;-70
2023/02/21 11:43:59;;;;;;;3.60;3.30;;;;;;;11.31;78.09;97233.16;5065280;28;20662;-71
2023/02/21 11:46:37;;;;;;;3.83;3.50;;;;;;;11.35;78.18;97223.00;5061992;28;20205;-71
2023/02/21 11:49:11;;;;;;;3.63;3.43;;;;;;;11.52;77.31;97224.41;5062857;28;20284;-70
2023/02/21 11:51:41;;;;;;;4.23;3.77;;;;;;;11.53;77.26;97231.34;5065293;28;20206;-72
2023/02/21 11:54:09;;;;;;;6.23;3.83;;;;;;;11.83;76.80;97227.75;5020304;28;20697;-70
2023/02/21 11:56:52;;;;;;;6.23;5.20;;;;;;;11.85;75.90;97223.06;5067580;28;20237;-70
2023/02/21 11:59:30;;;;;;;4.33;3.73;;;;;;;11.64;76.49;97214.09;5058917;28;20204;-70
2023/02/21 12:02:21;;;;;;;3.60;3.20;;;;;;;11.50;76.63;97218.47;5065925;28;20206;-72
2023/02/21 12:05:03;;;;;;;3.73;3.43;;;;;;;11.64;75.65;97219.41;5041454;28;20541;-71
2023/02/21 12:07:36;;;;;;;3.63;3.40;;;;;;;11.66;75.89;97216.59;5059650;28;20686;-69
2023/02/21 12:10:12;;;;;;;4.50;4.10;;;;;;;11.69;75.85;97216.19;5012415;28;20210;-71
2023/02/21 12:12:45;;;;;;;4.20;3.90;;;;;;;11.54;76.19;97206.44;5058542;28;20210;-70
2023/02/21 12:15:21;;;;;;;4.23;3.90;;;;;;;11.47;76.88;97202.91;5063332;28;20218;-70
2023/02/21 12:18:00;;;;;;;4.10;3.80;;;;;;;11.66;76.88;97209.44;5063875;28;20202;-70
2023/02/21 12:20:42;;;;;;;3.63;3.37;;;;;;;11.93;75.00;97190.25;5060659;28;20311;-71
2023/02/21 12:23:17;;;;;;;3.77;3.47;;;;;;;11.82;76.02;97179.16;5059590;28;20221;-67
2023/02/21 12:25:56;;;;;;;3.53;3.33;;;;;;;12.30;75.43;97188.28;5013498;28;20331;-69
2023/02/21 12:28:32;;;;;;;4.87;3.57;;;;;;;12.56;74.94;97178.84;5008675;28;20211;-69
2023/02/21 12:31:12;;;;;;;3.90;3.60;;;;;;;12.72;73.34;97178.53;5045015;28;20415;-69
2023/02/21 12:33:44;;;;;;;3.87;3.57;;;;;;;12.70;72.90;97169.09;5056730;28;20372;-69
2023/02/21 12:36:31;;;;;;;5.13;3.67;;;;;;;12.71;73.32;97165.41;5041642;28;20620;-70
2023/02/21 12:39:06;;;;;;;3.50;3.30;;;;;;;12.19;72.86;97149.81;5042388;28;20199;-71
2023/02/21 12:41:43;;;;;;;3.80;3.50;;;;;;;12.23;73.56;97153.72;5018657;28;20206;-71
2023/02/21 12:44:13;;;;;;;4.93;4.07;;;;;;;12.30;74.42;97154.59;5065758;28;20590;-70
2023/02/21 12:46:47;;;;;;;3.60;3.30;;;;;;;12.93;73.47;97147.50;5070038;28;20202;-70
2023/02/21 12:49:19;;;;;;;4.97;3.17;;;;;;;13.51;72.57;97140.06;5034899;28;20255;-71
2023/02/21 12:51:51;;;;;;;3.67;3.37;;;;;;;12.79;71.68;97143.97;5051236;28;20226;-70
2023/02/21 12:54:20;;;;;;;3.37;3.17;;;;;;;13.01;71.92;97138.53;5045528;28;20256;-71
2023/02/21 12:56:52;;;;;;;3.10;2.90;;;;;;;13.11;70.84;97140.81;5032313;28;20217;-70
2023/02/21 12:59:23;;;;;;;3.40;3.03;;;;;;;13.16;70.21;97139.16;5067786;28;20775;-70
2023/02/21 13:01:53;;;;;;;4.03;3.73;;;;;;;13.25;70.89;97137.13;5066644;28;20198;-69
2023/02/21 13:04:26;;;;;;;3.53;3.30;;;;;;;13.20;70.29;97130.78;5069150;28;20218;-69
2023/02/21 13:06:58;;;;;;;3.77;3.47;;;;;;;13.28;70.25;97127.94;5066477;28;20406;-69
2023/02/21 13:09:32;;;;;;;3.73;3.43;;;;;;;13.17;71.76;97124.03;5070705;28;20202;-70
2023/02/21 13:12:04;;;;;;;3.53;3.23;;;;;;;12.98;71.97;97109.66;5021895;28;20744;-68
2023/02/21 13:14:37;;;;;;;3.80;3.37;;;;;;;12.49;73.92;97098.25;5069648;28;20222;-71
2023/02/21 13:17:10;;;;;;;4.10;3.63;;;;;;;12.09;75.71;97086.44;5066908;28;20870;-69
2023/02/21 13:19:42;;;;;;;4.83;3.03;;;;;;;12.49;75.04;97083.13;5064283;28;20217;-67
2023/02/21 13:22:28;;;;;;;3.80;3.50;;;;;;;12.84;74.98;97092.88;5066416;28;20202;-67
2023/02/21 13:25:03;;;;;;;4.03;3.70;;;;;;;12.86;73.29;97099.59;5061499;28;20319;-68
2023/02/21 13:27:42;;;;;;;3.80;3.30;;;;;;;12.93;74.02;97090.84;5021296;28;20216;-69
2023/02/21 13:30:14;;;;;;;4.20;3.87;;;;;;;12.69;73.02;97091.19;5063080;28;20207;-67
2023/02/21 13:32:51;;;;;;;3.57;3.27;;;;;;;12.92;73.12;97094.53;5070515;28;20811;-67
2023/02/21 13:35:21;;;;;;;3.47;3.27;;;;;;;13.23;73.37;97087.81;5064537;28;20227;-68
2023/02/21 13:37:50;;;;;;;3.50;3.20;;;;;;;13.53;71.96;97090.09;5065664;28;20616;-67
2023/02/21 13:40:22;;;;;;;2.90;2.70;;;;;;;13.53;70.45;97087.44;5034061;28;20206;-68
2023/02/21 13:42:59;;;;;;;5.50;3.17;;;;;;;13.63;71.64;97087.84;5010135;28;20325;-69
2023/02/21 13:45:31;;;;;;;4.10;3.37;;;;;;;13.21;71.42;97079.22;5061894;28;20198;-66
2023/02/21 13:48:22;;;;;;;3.80;3.33;;;;;;;13.43;72.11;97077.19;5049242;28;20260;-69
2023/02/21 13:50:51;;;;;;;3.77;3.50;;;;;;;13.57;71.87;97073.53;5052469;28;20202;-68
2023/02/21 13:53:21;;;;;;;2.87;2.67;;;;;;;13.39;70.98;97066.13;5057587;28;20221;-68
2023/02/21 13:56:25;;;;;;;4.10;3.30;;;;;;;13.35;71.79;97069.41;5064266;28;20257;-69
2023/02/21 13:58:53;;;;;;;2.50;2.40;;;;;;;13.33;71.89;97053.66;5029603;28;20254;-67
2023/02/21 14:01:40;;;;;;;3.10;2.83;;;;;;;13.20;71.59;97064.28;5045405;28;20206;-69
2023/02/21 14:05:02;;;;;;;4.73;3.60;;;;;;;12.90;71.84;97068.13;5058524;28;20226;-67
2023/02/21 14:07:56;;;;;;;2.93;2.73;;;;;;;12.98;72.19;97061.81;5059467;28;20225;-69